Time;durP1;ratioP1;P1;durP2;ratioP2;P2;SDS_P1;SDS_P2;PMS_P1;PMS_P2;Temp;Humidity;BMP_temperature;BMP_pressure;BME280_temperature;BME280_humidity;BME280_pressure;Samples;Min_cycle;Max_cycle;Signal;HPM_P1;HPM_P2
2021/12/25 00:00:52;;;;;;;88.93;33.72;;;;;;;;;;5032810;28;20558;-66
2021/12/25 00:03:18;;;;;;;53.13;20.23;;;;;;;;;;5032980;28;20167;-64
2021/12/25 00:05:47;;;;;;;47.75;19.95;;;;;;;;;;5032626;28;20465;-64
2021/12/25 00:08:14;;;;;;;47.22;21.52;;;;;;;;;;5033148;28;20116;-63
2021/12/25 00:10:40;;;;;;;70.53;34.13;;;;;;;;;;5034041;28;20055;-65
2021/12/25 00:13:06;;;;;;;76.07;36.45;;;;;;;;;;5032752;28;20022;-64
2021/12/25 00:15:32;;;;;;;105.85;46.38;;;;;;;;;;5033141;28;20356;-65
2021/12/25 00:17:58;;;;;;;82.97;38.03;;;;;;;;;;5033174;28;20080;-64
2021/12/25 00:20:25;;;;;;;108.22;46.20;;;;;;;;;;5032669;28;20506;-64
2021/12/25 00:22:51;;;;;;;82.63;39.05;;;;;;;;;;5032971;28;20028;-66
2021/12/25 00:25:19;;;;;;;112.05;48.60;;;;;;;;;;5033118;28;20111;-65
2021/12/25 00:30:19;;;;;;;87.20;40.95;;;;;;;;;;5032898;28;20486;-66
2021/12/25 00:32:52;;;;;;;49.83;23.05;;;;;;;;;;5032957;28;20480;-67
2021/12/25 00:35:19;;;;;;;67.70;32.58;;;;;;;;;;5032650;28;20387;-65
2021/12/25 00:37:45;;;;;;;50.83;25.90;;;;;;;;;;5033529;28;20448;-63
2021/12/25 00:40:11;;;;;;;64.03;28.02;;;;;;;;;;5033718;28;20024;-65
2021/12/25 00:42:38;;;;;;;49.83;25.08;;;;;;;;;;5033874;28;20492;-66
2021/12/25 00:45:04;;;;;;;90.05;36.72;;;;;;;;;;5034382;28;20036;-65
2021/12/25 00:47:30;;;;;;;60.30;27.85;;;;;;;;;;5034001;28;20030;-64
2021/12/25 00:49:57;;;;;;;56.22;25.00;;;;;;;;;;5033591;28;20061;-66
2021/12/25 00:52:23;;;;;;;58.60;29.30;;;;;;;;;;5035203;28;20029;-64
2021/12/25 00:54:49;;;;;;;55.50;27.08;;;;;;;;;;5036320;28;20021;-63
2021/12/25 00:57:15;;;;;;;52.88;24.88;;;;;;;;;;5036422;28;20071;-65
2021/12/25 00:59:41;;;;;;;52.40;24.60;;;;;;;;;;5036214;28;20029;-65
2021/12/25 01:02:07;;;;;;;51.35;23.88;;;;;;;;;;5035626;28;20558;-65
2021/12/25 01:04:34;;;;;;;55.00;26.90;;;;;;;;;;5036631;28;20164;-64
2021/12/25 01:07:00;;;;;;;52.47;25.75;;;;;;;;;;5036218;28;20067;-63
2021/12/25 01:09:26;;;;;;;44.47;23.20;;;;;;;;;;5035939;28;20022;-65
2021/12/25 01:11:53;;;;;;;43.25;21.77;;;;;;;;;;5035732;28;20029;-63
2021/12/25 01:14:36;;;;;;;47.97;23.23;;;;;;;;;;5036331;28;20365;-63
2021/12/25 01:19:48;;;;;;;43.75;20.98;;;;;;;;;;5035884;28;20033;-62
2021/12/25 01:25:18;;;;;;;47.15;21.02;;;;;;;;;;5036078;28;20080;-66
2021/12/25 01:38:19;;;;;;;32.53;16.60;;;;;;;;;;5035437;28;20038;-68
2021/12/25 01:48:37;;;;;;;35.88;16.33;;;;;;;;;;5035278;28;20037;-63
2021/12/25 01:51:03;;;;;;;66.90;32.00;;;;;;;;;;5035180;28;20483;-64
2021/12/25 01:53:29;;;;;;;45.13;21.85;;;;;;;;;;5035024;28;20456;-64
2021/12/25 01:55:57;;;;;;;41.72;20.45;;;;;;;;;;5035295;28;20415;-64
2021/12/25 01:58:23;;;;;;;38.58;17.25;;;;;;;;;;5034607;28;20022;-64
2021/12/25 02:00:51;;;;;;;29.25;13.82;;;;;;;;;;5035417;28;20039;-63
2021/12/25 02:03:18;;;;;;;77.93;32.65;;;;;;;;;;5034132;28;20468;-65
2021/12/25 02:05:45;;;;;;;123.40;51.22;;;;;;;;;;5034926;28;20041;-65
2021/12/25 02:08:11;;;;;;;45.95;18.52;;;;;;;;;;5034747;28;20017;-63
2021/12/25 02:10:37;;;;;;;32.10;13.77;;;;;;;;;;5034738;28;20031;-64
2021/12/25 02:13:03;;;;;;;28.40;13.82;;;;;;;;;;5034451;28;20017;-65
2021/12/25 02:15:31;;;;;;;24.00;12.75;;;;;;;;;;5034958;28;20383;-64
2021/12/25 02:20:39;;;;;;;27.67;13.00;;;;;;;;;;5034522;28;20045;-66
2021/12/25 02:23:15;;;;;;;28.88;14.25;;;;;;;;;;5034894;28;20037;-64
2021/12/25 02:25:41;;;;;;;39.33;19.38;;;;;;;;;;5034610;28;20059;-65
2021/12/25 02:28:08;;;;;;;34.60;18.40;;;;;;;;;;5034663;28;20075;-66
2021/12/25 02:30:34;;;;;;;26.65;13.73;;;;;;;;;;5034787;28;20108;-64
2021/12/25 02:33:01;;;;;;;30.35;15.88;;;;;;;;;;5033660;28;20028;-66
2021/12/25 02:35:27;;;;;;;89.35;35.17;;;;;;;;;;5034501;28;20026;-64
2021/12/25 02:37:53;;;;;;;24.90;12.68;;;;;;;;;;5034744;28;20021;-66
2021/12/25 02:40:20;;;;;;;20.23;9.52;;;;;;;;;;5034037;28;20395;-67
2021/12/25 02:42:47;;;;;;;14.70;7.68;;;;;;;;;;5034363;28;20018;-65
2021/12/25 02:45:18;;;;;;;14.80;7.70;;;;;;;;;;5034650;28;20024;-65
2021/12/25 02:47:46;;;;;;;18.83;10.00;;;;;;;;;;5033953;28;20098;-66
2021/12/25 02:50:12;;;;;;;16.52;7.65;;;;;;;;;;5034470;28;20044;-67
2021/12/25 02:52:39;;;;;;;18.77;9.15;;;;;;;;;;5034466;28;20096;-64
2021/12/25 02:55:08;;;;;;;27.38;12.20;;;;;;;;;;5034040;28;20033;-65
2021/12/25 02:57:34;;;;;;;29.17;12.73;;;;;;;;;;5034490;28;20021;-65
2021/12/25 03:00:01;;;;;;;100.18;36.72;;;;;;;;;;5034080;28;20021;-63
2021/12/25 03:02:27;;;;;;;66.28;26.13;;;;;;;;;;5033874;28;20034;-64
2021/12/25 03:04:53;;;;;;;40.65;13.38;;;;;;;;;;5034330;28;20537;-66
2021/12/25 03:07:19;;;;;;;24.52;10.30;;;;;;;;;;5033880;28;20472;-63
2021/12/25 03:09:45;;;;;;;77.95;31.00;;;;;;;;;;5033965;28;20029;-65
2021/12/25 03:12:14;;;;;;;52.72;21.15;;;;;;;;;;5033843;28;20025;-65
2021/12/25 03:15:07;;;;;;;19.60;7.90;;;;;;;;;;5033619;28;20725;-64
2021/12/25 03:17:29;;;;;;;32.28;15.48;;;;;;;;;;5033452;28;20080;-66
2021/12/25 03:19:56;;;;;;;38.25;18.10;;;;;;;;;;5033721;28;20025;-65
2021/12/25 03:22:22;;;;;;;48.35;23.17;;;;;;;;;;5033930;28;20464;-63
2021/12/25 03:24:49;;;;;;;44.80;20.85;;;;;;;;;;5033762;28;20041;-65
2021/12/25 03:27:15;;;;;;;44.08;21.80;;;;;;;;;;5033532;28;20495;-66
2021/12/25 03:29:42;;;;;;;39.75;16.52;;;;;;;;;;5033523;28;20026;-64
2021/12/25 03:32:09;;;;;;;49.53;23.10;;;;;;;;;;5033875;28;20088;-64
2021/12/25 03:34:35;;;;;;;40.47;19.15;;;;;;;;;;5033496;28;20029;-65
2021/12/25 03:37:01;;;;;;;29.65;15.15;;;;;;;;;;5033264;28;20030;-66
2021/12/25 03:39:28;;;;;;;25.45;12.85;;;;;;;;;;5033428;28;20082;-65
2021/12/25 03:41:58;;;;;;;20.33;9.13;;;;;;;;;;5033334;28;20115;-64
2021/12/25 03:44:25;;;;;;;15.30;7.25;;;;;;;;;;5033398;28;20047;-66
2021/12/25 03:46:53;;;;;;;13.25;6.07;;;;;;;;;;5033356;28;20080;-67
2021/12/25 03:53:05;;;;;;;10.45;5.85;;;;;;;;;;5033580;28;20028;-65
2021/12/25 03:57:51;;;;;;;11.15;4.82;;;;;;;;;;5033039;28;20135;-67
2021/12/25 04:00:27;;;;;;;13.27;7.05;;;;;;;;;;5033845;28;20023;-66
2021/12/25 04:02:57;;;;;;;13.40;6.25;;;;;;;;;;5033574;28;20065;-65
2021/12/25 04:05:30;;;;;;;12.23;7.40;;;;;;;;;;5033141;28;20461;-66
2021/12/25 04:08:03;;;;;;;13.57;7.30;;;;;;;;;;5033512;28;20033;-65
2021/12/25 04:10:34;;;;;;;12.35;6.63;;;;;;;;;;5033391;28;20049;-66
2021/12/25 04:13:00;;;;;;;12.52;7.38;;;;;;;;;;5033474;28;20079;-64
2021/12/25 04:15:26;;;;;;;13.73;6.47;;;;;;;;;;5033064;28;20473;-66
2021/12/25 04:17:52;;;;;;;14.77;7.13;;;;;;;;;;5033313;28;20034;-65
2021/12/25 04:20:19;;;;;;;10.70;5.20;;;;;;;;;;5033349;28;20017;-65
2021/12/25 04:23:08;;;;;;;16.77;6.55;;;;;;;;;;5033208;28;20463;-65
2021/12/25 04:25:35;;;;;;;13.45;6.55;;;;;;;;;;5033015;28;20085;-65
2021/12/25 04:29:03;;;;;;;9.82;5.50;;;;;;;;;;5036178;28;20409;-66
2021/12/25 05:01:52;;;;;;;46.75;22.23;;;;;;;;;;5024694;28;20053;-65
2021/12/25 05:04:24;;;;;;;58.25;25.48;;;;;;;;;;5036381;28;20040;-64
2021/12/25 05:06:50;;;;;;;69.30;29.70;;;;;;;;;;5035101;28;20076;-63
2021/12/25 05:09:16;;;;;;;156.48;56.47;;;;;;;;;;5036460;28;20026;-65
2021/12/25 05:11:42;;;;;;;62.40;27.75;;;;;;;;;;5036340;28;20068;-65
2021/12/25 05:14:09;;;;;;;39.60;18.88;;;;;;;;;;5035788;28;20021;-62
2021/12/25 05:16:35;;;;;;;45.15;20.35;;;;;;;;;;5036327;28;20054;-64
2021/12/25 05:19:01;;;;;;;45.85;21.23;;;;;;;;;;5035920;28;20101;-63
2021/12/25 05:21:27;;;;;;;42.85;20.35;;;;;;;;;;5035885;28;20069;-64
2021/12/25 05:23:53;;;;;;;48.58;20.40;;;;;;;;;;5036250;28;20061;-66
2021/12/25 05:26:19;;;;;;;49.72;23.08;;;;;;;;;;5036480;28;20025;-63
2021/12/25 05:28:56;;;;;;;45.28;20.65;;;;;;;;;;5035638;28;20121;-63
2021/12/25 05:31:22;;;;;;;41.15;18.63;;;;;;;;;;5035899;28;20033;-63
2021/12/25 05:33:49;;;;;;;39.88;20.35;;;;;;;;;;5035853;28;20044;-63
2021/12/25 05:36:15;;;;;;;40.90;20.65;;;;;;;;;;5035406;28;20025;-63
2021/12/25 05:38:41;;;;;;;41.80;20.92;;;;;;;;;;5035795;28;20025;-66
2021/12/25 05:41:07;;;;;;;42.53;21.30;;;;;;;;;;5035482;28;20507;-64
2021/12/25 05:43:34;;;;;;;40.13;21.33;;;;;;;;;;5035502;28;20075;-64
2021/12/25 05:46:00;;;;;;;44.38;22.67;;;;;;;;;;5035465;28;20028;-65
2021/12/25 05:48:26;;;;;;;46.70;22.88;;;;;;;;;;5035142;28;20027;-65
2021/12/25 05:50:52;;;;;;;43.25;23.35;;;;;;;;;;5036016;28;20480;-63
2021/12/25 05:53:19;;;;;;;41.00;21.27;;;;;;;;;;5035937;28;20028;-64
2021/12/25 05:55:45;;;;;;;63.70;31.05;;;;;;;;;;5035765;28;20029;-63
2021/12/25 05:58:11;;;;;;;68.78;32.70;;;;;;;;;;5035842;28;20108;-64
2021/12/25 06:00:40;;;;;;;55.90;27.58;;;;;;;;;;5036075;28;20029;-64
2021/12/25 06:03:06;;;;;;;44.50;22.52;;;;;;;;;;5034935;28;20163;-64
2021/12/25 06:05:32;;;;;;;41.83;21.95;;;;;;;;;;5034525;28;20029;-64
2021/12/25 06:07:59;;;;;;;39.83;19.42;;;;;;;;;;5035408;28;20105;-64
2021/12/25 06:10:25;;;;;;;40.75;21.83;;;;;;;;;;5034779;28;20468;-64
2021/12/25 06:12:54;;;;;;;48.97;24.02;;;;;;;;;;5035332;28;20038;-63
2021/12/25 06:15:21;;;;;;;49.10;24.00;;;;;;;;;;5035256;28;20033;-65
2021/12/25 06:17:47;;;;;;;40.47;21.40;;;;;;;;;;5034055;28;20017;-66
2021/12/25 06:20:14;;;;;;;54.35;23.50;;;;;;;;;;5034969;28;20082;-64
2021/12/25 06:22:40;;;;;;;51.67;24.88;;;;;;;;;;5034917;28;20030;-64
2021/12/25 06:25:07;;;;;;;59.95;26.95;;;;;;;;;;5034721;28;20056;-64
2021/12/25 06:27:33;;;;;;;51.72;26.42;;;;;;;;;;5035223;28;20032;-65
2021/12/25 06:30:00;;;;;;;32.38;15.10;;;;;;;;;;5034507;28;20040;-63
2021/12/25 06:32:26;;;;;;;48.10;23.48;;;;;;;;;;5034233;28;20028;-65
2021/12/25 06:34:52;;;;;;;31.85;15.85;;;;;;;;;;5034444;28;20399;-63
2021/12/25 06:37:18;;;;;;;32.45;15.82;;;;;;;;;;5034535;28;20029;-64
2021/12/25 06:39:46;;;;;;;29.42;14.73;;;;;;;;;;5034848;28;20025;-64
2021/12/25 06:42:13;;;;;;;39.72;20.98;;;;;;;;;;5034536;28;20027;-66
2021/12/25 06:44:45;;;;;;;37.25;17.83;;;;;;;;;;5033990;28;20029;-62
2021/12/25 06:47:11;;;;;;;31.02;16.83;;;;;;;;;;5034111;28;20025;-64
2021/12/25 06:49:37;;;;;;;32.30;16.77;;;;;;;;;;5033290;28;20024;-67
2021/12/25 06:52:03;;;;;;;47.08;26.23;;;;;;;;;;5034059;28;20105;-65
2021/12/25 06:54:29;;;;;;;23.85;12.80;;;;;;;;;;5034099;28;20033;-65
2021/12/25 06:57:01;;;;;;;32.67;16.02;;;;;;;;;;5033937;28;20018;-65
2021/12/25 06:59:30;;;;;;;35.38;19.17;;;;;;;;;;5032637;28;20025;-64
2021/12/25 07:01:57;;;;;;;34.00;15.95;;;;;;;;;;5032366;28;20026;-63
2021/12/25 07:04:23;;;;;;;32.80;15.65;;;;;;;;;;5032367;28;20384;-64
2021/12/25 07:06:49;;;;;;;27.50;14.43;;;;;;;;;;5033229;28;20479;-63
2021/12/25 07:09:15;;;;;;;35.05;17.08;;;;;;;;;;5034106;28;20025;-66
2021/12/25 07:11:43;;;;;;;26.48;15.07;;;;;;;;;;5034075;28;20049;-65
2021/12/25 07:14:11;;;;;;;32.55;18.08;;;;;;;;;;5033560;28;20028;-65
2021/12/25 07:16:38;;;;;;;29.27;16.45;;;;;;;;;;5034249;28;20149;-65
2021/12/25 07:19:04;;;;;;;29.83;15.70;;;;;;;;;;5034291;28;20053;-65
2021/12/25 07:21:30;;;;;;;38.25;21.52;;;;;;;;;;5032806;28;20037;-64
2021/12/25 07:23:57;;;;;;;20.27;11.82;;;;;;;;;;5032948;28;20496;-65
2021/12/25 07:26:24;;;;;;;21.50;12.43;;;;;;;;;;5033420;28;20072;-64
2021/12/25 07:28:50;;;;;;;22.10;11.18;;;;;;;;;;5033532;28;20025;-64
2021/12/25 07:31:19;;;;;;;25.35;14.68;;;;;;;;;;5033750;28;20464;-64
2021/12/25 07:33:45;;;;;;;17.58;9.18;;;;;;;;;;5033607;28;20021;-65
2021/12/25 07:36:12;;;;;;;9.07;5.50;;;;;;;;;;5033184;28;20028;-64
2021/12/25 07:38:38;;;;;;;4.25;2.45;;;;;;;;;;5033775;28;20021;-62
2021/12/25 07:41:04;;;;;;;4.22;2.60;;;;;;;;;;5032952;28;20502;-63
2021/12/25 07:43:31;;;;;;;4.75;2.67;;;;;;;;;;5033584;28;20029;-63
2021/12/25 07:45:57;;;;;;;5.75;3.38;;;;;;;;;;5033550;28;20040;-64
2021/12/25 07:48:25;;;;;;;4.97;3.13;;;;;;;;;;5033233;28;20026;-64
2021/12/25 07:50:52;;;;;;;7.38;3.70;;;;;;;;;;5033166;28;20025;-64
2021/12/25 07:53:19;;;;;;;7.95;4.95;;;;;;;;;;5033317;28;20049;-63
2021/12/25 07:55:49;;;;;;;10.32;5.95;;;;;;;;;;5033019;28;20024;-62
2021/12/25 07:58:19;;;;;;;33.58;20.33;;;;;;;;;;5034036;28;20029;-63
2021/12/25 08:00:45;;;;;;;86.63;43.30;;;;;;;;;;5032894;28;20037;-65
2021/12/25 08:03:12;;;;;;;95.40;48.95;;;;;;;;;;5036410;28;20028;-64
2021/12/25 08:05:39;;;;;;;64.32;36.67;;;;;;;;;;5036160;28;20447;-64
2021/12/25 08:08:07;;;;;;;77.70;40.75;;;;;;;;;;5037362;28;20021;-62
2021/12/25 08:10:33;;;;;;;77.38;39.25;;;;;;;;;;5037313;28;20096;-63
2021/12/25 08:12:59;;;;;;;83.13;43.92;;;;;;;;;;5037041;28;20100;-64
2021/12/25 08:15:27;;;;;;;67.88;33.95;;;;;;;;;;5036673;28;20021;-64
2021/12/25 08:17:54;;;;;;;65.28;33.17;;;;;;;;;;5037235;28;20021;-62
2021/12/25 08:20:20;;;;;;;33.40;17.70;;;;;;;;;;5036672;28;20541;-63
2021/12/25 08:22:46;;;;;;;39.33;19.00;;;;;;;;;;5036090;28;20484;-62
2021/12/25 08:25:13;;;;;;;31.30;18.05;;;;;;;;;;5036610;28;20048;-64
2021/12/25 08:27:40;;;;;;;27.02;15.13;;;;;;;;;;5036609;28;20025;-63
2021/12/25 08:30:08;;;;;;;31.55;17.38;;;;;;;;;;5036263;28;20026;-62
2021/12/25 08:32:35;;;;;;;16.40;8.48;;;;;;;;;;5036057;28;20021;-65
2021/12/25 08:35:01;;;;;;;8.90;4.32;;;;;;;;;;5036651;28;20037;-64
2021/12/25 08:37:27;;;;;;;5.35;3.38;;;;;;;;;;5034949;28;20100;-64
2021/12/25 08:39:54;;;;;;;7.03;3.10;;;;;;;;;;5036443;28;20419;-62
2021/12/25 08:42:21;;;;;;;3.10;1.60;;;;;;;;;;5036703;28;20068;-61
2021/12/25 08:47:30;;;;;;;3.67;1.85;;;;;;;;;;5036748;28;20376;-60
2021/12/25 08:49:57;;;;;;;6.20;2.30;;;;;;;;;;5036027;28;20021;-63
2021/12/25 08:52:24;;;;;;;6.10;2.90;;;;;;;;;;5036007;28;20033;-63
2021/12/25 08:54:50;;;;;;;5.70;3.25;;;;;;;;;;5035407;28;20029;-62
2021/12/25 08:57:29;;;;;;;5.82;3.05;;;;;;;;;;5033831;28;20040;-64
2021/12/25 08:59:57;;;;;;;7.53;3.40;;;;;;;;;;5034993;28;20096;-62
2021/12/25 09:02:24;;;;;;;5.45;3.05;;;;;;;;;;5035359;28;20357;-63
2021/12/25 09:04:51;;;;;;;6.50;3.63;;;;;;;;;;5034710;28;20026;-62
2021/12/25 09:07:17;;;;;;;5.53;2.88;;;;;;;;;;5032665;28;20022;-60
2021/12/25 09:09:43;;;;;;;3.83;1.80;;;;;;;;;;5034913;28;20028;-63
2021/12/25 09:12:13;;;;;;;3.95;2.47;;;;;;;;;;5034699;28;20033;-63
2021/12/25 09:14:39;;;;;;;5.60;3.00;;;;;;;;;;5032578;28;20376;-61
2021/12/25 09:17:07;;;;;;;2.90;2.22;;;;;;;;;;5035958;28;20024;-64
2021/12/25 09:19:34;;;;;;;7.07;4.47;;;;;;;;;;5035327;28;20029;-62
2021/12/25 09:22:00;;;;;;;6.80;4.13;;;;;;;;;;5035330;28;20508;-62
2021/12/25 09:24:26;;;;;;;10.75;7.00;;;;;;;;;;5035308;28;20048;-62
2021/12/25 09:26:53;;;;;;;10.30;5.15;;;;;;;;;;5035016;28;20028;-61
2021/12/25 09:29:32;;;;;;;16.70;10.05;;;;;;;;;;5035523;28;20018;-65
2021/12/25 09:31:59;;;;;;;13.65;8.57;;;;;;;;;;5032784;28;20017;-63
2021/12/25 09:34:25;;;;;;;9.45;3.85;;;;;;;;;;5033441;28;20080;-62
2021/12/25 09:36:51;;;;;;;9.40;4.53;;;;;;;;;;5033406;28;20014;-63
2021/12/25 09:39:18;;;;;;;8.38;3.78;;;;;;;;;;5034900;28;20049;-62
2021/12/25 09:41:44;;;;;;;5.28;3.80;;;;;;;;;;5033884;28;20036;-62
2021/12/25 09:44:10;;;;;;;7.45;3.80;;;;;;;;;;5033413;28;20101;-63
2021/12/25 09:46:36;;;;;;;7.43;4.47;;;;;;;;;;5035266;28;20233;-61
2021/12/25 09:49:03;;;;;;;8.70;5.95;;;;;;;;;;5035266;28;20033;-65
2021/12/25 09:51:29;;;;;;;15.73;7.97;;;;;;;;;;5034909;28;20026;-61
2021/12/25 09:53:56;;;;;;;9.30;5.70;;;;;;;;;;5035045;28;20029;-62
2021/12/25 09:56:22;;;;;;;8.27;4.95;;;;;;;;;;5035404;28;20026;-61
2021/12/25 09:58:48;;;;;;;6.60;4.32;;;;;;;;;;5034853;28;20104;-62
2021/12/25 10:01:34;;;;;;;4.22;3.28;;;;;;;;;;5033533;28;20433;-61
2021/12/25 10:04:01;;;;;;;2.50;2.20;;;;;;;;;;5032225;28;20030;-63
2021/12/25 10:06:31;;;;;;;4.80;2.95;;;;;;;;;;5034682;28;20030;-62
2021/12/25 10:08:58;;;;;;;5.22;3.25;;;;;;;;;;5034774;28;20032;-61
2021/12/25 10:11:26;;;;;;;4.28;2.35;;;;;;;;;;5035056;28;20487;-61
2021/12/25 10:13:54;;;;;;;7.32;4.70;;;;;;;;;;5034507;28;20037;-61
2021/12/25 10:16:21;;;;;;;5.60;3.30;;;;;;;;;;5034751;28;20021;-61
2021/12/25 10:18:47;;;;;;;10.02;5.53;;;;;;;;;;5034733;28;20515;-60
2021/12/25 10:21:17;;;;;;;5.13;3.15;;;;;;;;;;5034605;28;20040;-61
2021/12/25 10:23:44;;;;;;;8.23;3.95;;;;;;;;;;5034095;28;20075;-60
2021/12/25 10:26:10;;;;;;;9.70;4.88;;;;;;;;;;5034313;28;20022;-61
2021/12/25 10:28:37;;;;;;;4.38;2.38;;;;;;;;;;5034339;28;20026;-61
2021/12/25 10:31:07;;;;;;;7.50;3.45;;;;;;;;;;5034328;28;20091;-60
2021/12/25 10:33:33;;;;;;;9.50;5.57;;;;;;;;;;5034617;28;20514;-62
2021/12/25 10:36:10;;;;;;;10.30;5.85;;;;;;;;;;5034402;28;20108;-61
2021/12/25 10:38:37;;;;;;;6.85;4.22;;;;;;;;;;5034852;28;20572;-61
2021/12/25 10:41:18;;;;;;;13.45;6.70;;;;;;;;;;5035663;28;20042;-62
2021/12/25 10:43:44;;;;;;;12.63;6.70;;;;;;;;;;5035078;28;20072;-62
2021/12/25 10:46:11;;;;;;;7.10;4.45;;;;;;;;;;5035113;28;20116;-61
2021/12/25 10:48:37;;;;;;;6.65;4.20;;;;;;;;;;5034703;28;20034;-60
2021/12/25 10:51:04;;;;;;;9.35;5.22;;;;;;;;;;5034205;28;20033;-61
2021/12/25 10:53:42;;;;;;;6.22;3.58;;;;;;;;;;5034770;28;20037;-61
2021/12/25 10:56:19;;;;;;;4.30;2.65;;;;;;;;;;5032408;28;20391;-61
2021/12/25 10:58:45;;;;;;;5.97;2.90;;;;;;;;;;5033094;28;20468;-61
2021/12/25 11:01:12;;;;;;;5.90;2.80;;;;;;;;;;5033921;28;20040;-61
2021/12/25 11:03:40;;;;;;;5.22;2.78;;;;;;;;;;5033437;28;20515;-62
2021/12/25 11:06:18;;;;;;;6.18;3.13;;;;;;;;;;5034275;28;20534;-63
2021/12/25 11:08:45;;;;;;;4.40;2.92;;;;;;;;;;5035129;28;20216;-64
2021/12/25 11:11:18;;;;;;;8.27;3.80;;;;;;;;;;5033119;28;20397;-64
2021/12/25 11:13:48;;;;;;;7.97;4.13;;;;;;;;;;5035185;28;20029;-65
2021/12/25 11:16:16;;;;;;;9.98;5.22;;;;;;;;;;5034782;28;20075;-63
2021/12/25 11:18:52;;;;;;;8.85;5.32;;;;;;;;;;5033893;28;20346;-63
2021/12/25 11:21:18;;;;;;;13.88;6.15;;;;;;;;;;5033650;28;20065;-63
2021/12/25 11:23:47;;;;;;;11.45;5.82;;;;;;;;;;5033511;28;20132;-64
2021/12/25 11:26:14;;;;;;;7.78;4.78;;;;;;;;;;5033580;28;20113;-65
2021/12/25 11:28:44;;;;;;;12.48;5.80;;;;;;;;;;5033427;28;20120;-65
2021/12/25 11:31:11;;;;;;;8.13;3.75;;;;;;;;;;5033389;28;20030;-65
2021/12/25 11:33:38;;;;;;;5.10;3.05;;;;;;;;;;5032700;28;20338;-65
2021/12/25 11:36:05;;;;;;;8.68;3.72;;;;;;;;;;5032424;28;20409;-65
2021/12/25 11:38:31;;;;;;;12.13;6.95;;;;;;;;;;5032543;28;20032;-63
2021/12/25 11:41:04;;;;;;;9.27;4.10;;;;;;;;;;5033520;28;20023;-65
2021/12/25 11:43:40;;;;;;;7.80;4.85;;;;;;;;;;5033397;28;20032;-64
2021/12/25 11:46:08;;;;;;;8.80;4.90;;;;;;;;;;5033258;28;20100;-64
2021/12/25 11:48:34;;;;;;;19.13;8.25;;;;;;;;;;5032423;28;20075;-64
2021/12/25 11:51:01;;;;;;;23.55;9.80;;;;;;;;;;5031363;28;20076;-63
2021/12/25 11:58:39;;;;;;;9.83;4.07;;;;;;;;;;5053286;28;20074;-65
2021/12/25 12:01:25;;;;;;;8.02;4.25;;;;;;;;;;5052916;28;20522;-63
2021/12/25 12:04:26;;;;;;;8.57;4.43;;;;;;;;;;5053338;28;20052;-65
2021/12/25 12:06:56;;;;;;;14.02;6.80;;;;;;;;;;5017501;28;20030;-64
2021/12/25 12:09:31;;;;;;;13.73;7.97;;;;;;;;;;5033124;28;20061;-63
2021/12/25 12:12:03;;;;;;;14.57;7.20;;;;;;;;;;5033411;28;20029;-64
2021/12/25 12:14:29;;;;;;;24.73;11.77;;;;;;;;;;5032693;28;20026;-63
2021/12/25 12:17:00;;;;;;;17.20;10.15;;;;;;;;;;5033000;28;20030;-64
2021/12/25 12:19:46;;;;;;;32.72;17.95;;;;;;;;;;5033120;28;20125;-64
2021/12/25 12:22:36;;;;;;;10.70;5.82;;;;;;;;;;5031848;28;20082;-63
2021/12/25 12:27:37;;;;;;;8.82;4.70;;;;;;;;;;5052597;28;20032;-63
2021/12/25 12:30:05;;;;;;;8.00;5.05;;;;;;;;;;5033364;28;20140;-62
2021/12/25 12:32:32;;;;;;;8.25;4.45;;;;;;;;;;5033494;28;20033;-64
2021/12/25 12:34:58;;;;;;;10.50;4.80;;;;;;;;;;5032383;28;20451;-63
2021/12/25 12:37:34;;;;;;;11.98;6.53;;;;;;;;;;5031770;28;20030;-64
2021/12/25 12:40:05;;;;;;;6.68;4.00;;;;;;;;;;5031623;28;20108;-61
2021/12/25 12:42:48;;;;;;;6.78;3.75;;;;;;;;;;5032583;28;20080;-64
2021/12/25 12:45:16;;;;;;;13.30;6.00;;;;;;;;;;5031577;28;20045;-62
2021/12/25 12:48:02;;;;;;;8.00;4.40;;;;;;;;;;5033978;28;20025;-63
2021/12/25 12:50:32;;;;;;;10.20;5.70;;;;;;;;;;5036257;28;20036;-62
2021/12/25 12:53:00;;;;;;;6.88;3.88;;;;;;;;;;5036100;28;20120;-61
2021/12/25 12:55:26;;;;;;;3.40;2.05;;;;;;;;;;5036227;28;20068;-62
2021/12/25 12:58:06;;;;;;;4.30;2.55;;;;;;;;;;5036299;28;20028;-64
2021/12/25 13:00:33;;;;;;;5.57;2.03;;;;;;;;;;5036587;28;20379;-62
2021/12/25 13:02:59;;;;;;;6.03;3.55;;;;;;;;;;5036294;28;20036;-63
2021/12/25 13:05:31;;;;;;;5.13;2.72;;;;;;;;;;5036663;28;20021;-62
2021/12/25 13:08:03;;;;;;;4.57;3.17;;;;;;;;;;5036251;28;20067;-63
2021/12/25 13:10:40;;;;;;;2.97;2.13;;;;;;;;;;5035920;28;20032;-63
2021/12/25 13:13:38;;;;;;;7.05;3.35;;;;;;;;;;5036129;28;20083;-64
2021/12/25 13:16:06;;;;;;;9.43;5.10;;;;;;;;;;5036386;28;20480;-64
2021/12/25 13:18:39;;;;;;;3.03;2.30;;;;;;;;;;5035746;28;20025;-66
2021/12/25 13:21:09;;;;;;;4.20;3.10;;;;;;;;;;5036014;28;20546;-64
2021/12/25 13:23:37;;;;;;;6.38;3.00;;;;;;;;;;5035700;28;20104;-64
2021/12/25 13:26:17;;;;;;;3.80;2.33;;;;;;;;;;5035374;28;20022;-62
2021/12/25 13:28:44;;;;;;;;;;;;;;;;;;5035647;28;20087;-62
2021/12/25 13:31:16;;;;;;;5.03;3.15;;;;;;;;;;5034804;28;19909;-64
2021/12/25 13:33:47;;;;;;;9.20;4.22;;;;;;;;;;5034404;28;20021;-63
2021/12/25 13:36:24;;;;;;;5.30;3.53;;;;;;;;;;5036033;28;20026;-63
2021/12/25 13:38:53;;;;;;;6.30;3.25;;;;;;;;;;5035679;28;20104;-64
2021/12/25 13:41:33;;;;;;;4.85;3.13;;;;;;;;;;5036304;28;20026;-63
2021/12/25 13:44:17;;;;;;;11.45;5.70;;;;;;;;;;5035753;28;20027;-62
2021/12/25 13:46:43;;;;;;;6.00;3.70;;;;;;;;;;5035534;28;20025;-62
2021/12/25 13:49:29;;;;;;;8.70;4.22;;;;;;;;;;5035547;28;20473;-62
2021/12/25 13:51:56;;;;;;;6.07;2.28;;;;;;;;;;5031272;28;20042;-62
2021/12/25 13:54:22;;;;;;;4.75;2.80;;;;;;;;;;5034426;28;20048;-62
2021/12/25 13:56:50;;;;;;;5.50;2.83;;;;;;;;;;5035393;28;20112;-62
2021/12/25 13:59:16;;;;;;;6.55;3.88;;;;;;;;;;5034138;28;20104;-61
2021/12/25 14:01:42;;;;;;;5.18;3.30;;;;;;;;;;5035109;28;20025;-61
2021/12/25 14:04:10;;;;;;;10.15;5.60;;;;;;;;;;5035239;28;20017;-62
2021/12/25 14:06:37;;;;;;;10.60;5.40;;;;;;;;;;5034816;28;20024;-63
2021/12/25 14:09:04;;;;;;;10.50;4.82;;;;;;;;;;5035564;28;20026;-62
2021/12/25 14:11:30;;;;;;;10.15;4.55;;;;;;;;;;5033872;28;20034;-62
2021/12/25 14:13:56;;;;;;;11.43;6.88;;;;;;;;;;5034395;28;20025;-63
2021/12/25 14:16:23;;;;;;;13.40;6.40;;;;;;;;;;5034990;28;20018;-62
2021/12/25 14:18:49;;;;;;;11.30;5.35;;;;;;;;;;5034365;28;20024;-65
2021/12/25 14:21:17;;;;;;;3.97;2.88;;;;;;;;;;5033350;28;20484;-62
2021/12/25 14:23:43;;;;;;;6.93;3.03;;;;;;;;;;5034247;28;20028;-61
2021/12/25 14:26:09;;;;;;;6.82;3.45;;;;;;;;;;5034272;28;20022;-63
2021/12/25 14:28:37;;;;;;;6.45;3.35;;;;;;;;;;5033037;28;20025;-63
2021/12/25 14:31:05;;;;;;;3.53;2.17;;;;;;;;;;5033204;28;20022;-64
2021/12/25 14:33:52;;;;;;;1.80;1.48;;;;;;;;;;5032727;28;20032;-63
2021/12/25 14:36:18;;;;;;;5.90;2.60;;;;;;;;;;5034982;28;20530;-61
2021/12/25 14:38:45;;;;;;;3.13;2.35;;;;;;;;;;5034604;28;20444;-64
2021/12/25 14:41:12;;;;;;;6.25;3.60;;;;;;;;;;5033256;28;20076;-63
2021/12/25 14:43:39;;;;;;;5.82;3.10;;;;;;;;;;5034643;28;20384;-63
2021/12/25 14:46:06;;;;;;;4.68;3.15;;;;;;;;;;5034063;28;20048;-62
2021/12/25 14:48:37;;;;;;;3.85;2.58;;;;;;;;;;5043675;28;20024;-61
2021/12/25 14:51:07;;;;;;;6.37;4.53;;;;;;;;;;5053996;28;20025;-61
2021/12/25 14:53:43;;;;;;;7.65;4.38;;;;;;;;;;5053555;28;20029;-64
2021/12/25 14:56:15;;;;;;;6.53;3.78;;;;;;;;;;5053806;28;20025;-62
2021/12/25 14:58:46;;;;;;;6.63;3.58;;;;;;;;;;5054109;28;20025;-63
2021/12/25 15:01:18;;;;;;;7.47;4.82;;;;;;;;;;5054028;28;20032;-63
2021/12/25 15:03:45;;;;;;;7.80;4.57;;;;;;;;;;5053647;28;20096;-62
2021/12/25 15:06:22;;;;;;;7.75;4.40;;;;;;;;;;5054320;28;20033;-62
2021/12/25 15:09:06;;;;;;;19.13;8.57;;;;;;;;;;5053181;28;20486;-63
2021/12/25 15:11:38;;;;;;;11.15;5.75;;;;;;;;;;5052407;28;20029;-64
2021/12/25 15:14:06;;;;;;;7.15;4.65;;;;;;;;;;5054457;28;20464;-61
2021/12/25 15:16:48;;;;;;;8.93;4.53;;;;;;;;;;5053779;28;20112;-64
2021/12/25 15:19:24;;;;;;;5.65;3.63;;;;;;;;;;5052645;28;20531;-62
2021/12/25 15:21:51;;;;;;;7.70;3.63;;;;;;;;;;5053839;28;20037;-63
2021/12/25 15:24:19;;;;;;;4.95;3.47;;;;;;;;;;5053242;28;20049;-63
2021/12/25 15:26:59;;;;;;;8.05;4.60;;;;;;;;;;5053677;28;20028;-64
2021/12/25 15:29:32;;;;;;;11.07;6.03;;;;;;;;;;5053291;28;20048;-62
2021/12/25 15:32:00;;;;;;;7.18;4.63;;;;;;;;;;5053287;28;20028;-62
2021/12/25 15:34:26;;;;;;;5.35;3.10;;;;;;;;;;5053763;28;20068;-62
2021/12/25 15:36:52;;;;;;;5.47;3.20;;;;;;;;;;5053339;28;20056;-62
2021/12/25 15:39:20;;;;;;;6.80;3.47;;;;;;;;;;5053556;28;20395;-63
2021/12/25 15:41:47;;;;;;;8.00;3.63;;;;;;;;;;5053313;28;20037;-63
2021/12/25 15:44:14;;;;;;;9.65;5.15;;;;;;;;;;5052759;28;20032;-62
2021/12/25 15:46:40;;;;;;;5.40;3.67;;;;;;;;;;5053473;28;20418;-63
2021/12/25 15:49:06;;;;;;;5.68;2.83;;;;;;;;;;5053464;28;20075;-64
2021/12/25 15:51:33;;;;;;;7.78;4.57;;;;;;;;;;5052907;28;20108;-63
2021/12/25 15:53:59;;;;;;;7.18;3.78;;;;;;;;;;5053475;28;20387;-64
2021/12/25 15:56:26;;;;;;;6.20;3.50;;;;;;;;;;5052992;28;20021;-62